sensor_id;sensor_type;location;lat;lon;timestamp;pressure;altitude;pressure_sealevel;temperature;humidity
58761;BME280;44529;47.464;19.014;2022-07-01T00:01:11;99778.84;;;25.36;63.12
58761;BME280;44529;47.464;19.014;2022-07-01T00:04:14;99784.03;;;25.34;63.09
58761;BME280;44529;47.464;19.014;2022-07-01T00:07:16;99781.72;;;25.29;63.33
58761;BME280;44529;47.464;19.014;2022-07-01T00:10:19;99779.69;;;25.33;63.30
58761;BME280;44529;47.464;19.014;2022-07-01T00:13:21;99787.69;;;25.27;63.43
58761;BME280;44529;47.464;19.014;2022-07-01T00:16:24;99783.00;;;25.24;63.69
58761;BME280;44529;47.464;19.014;2022-07-01T00:19:27;99794.50;;;25.23;63.78
58761;BME280;44529;47.464;19.014;2022-07-01T00:22:29;99789.09;;;25.16;63.82
58761;BME280;44529;47.464;19.014;2022-07-01T00:25:31;99795.47;;;25.12;63.94
58761;BME280;44529;47.464;19.014;2022-07-01T00:28:34;99791.19;;;25.08;63.89
58761;BME280;44529;47.464;19.014;2022-07-01T00:31:37;99794.84;;;25.01;64.25
58761;BME280;44529;47.464;19.014;2022-07-01T00:34:39;99787.37;;;24.98;64.25
58761;BME280;44529;47.464;19.014;2022-07-01T00:37:41;99789.34;;;24.98;64.40
58761;BME280;44529;47.464;19.014;2022-07-01T00:40:44;99789.44;;;24.94;64.59
58761;BME280;44529;47.464;19.014;2022-07-01T00:43:46;99782.25;;;24.97;64.58
58761;BME280;44529;47.464;19.014;2022-07-01T00:47:00;99789.53;;;24.87;64.59
58761;BME280;44529;47.464;19.014;2022-07-01T00:50:08;99788.47;;;24.81;64.77
58761;BME280;44529;47.464;19.014;2022-07-01T00:53:14;99789.75;;;24.73;65.20
58761;BME280;44529;47.464;19.014;2022-07-01T00:56:17;99788.63;;;24.70;65.23
58761;BME280;44529;47.464;19.014;2022-07-01T00:59:20;99784.28;;;24.69;65.16
58761;BME280;44529;47.464;19.014;2022-07-01T01:02:22;99784.31;;;24.66;65.42
58761;BME280;44529;47.464;19.014;2022-07-01T01:05:25;99788.47;;;24.54;65.89
58761;BME280;44529;47.464;19.014;2022-07-01T01:08:27;99786.88;;;24.53;65.75
58761;BME280;44529;47.464;19.014;2022-07-01T01:11:30;99785.28;;;24.55;65.68
58761;BME280;44529;47.464;19.014;2022-07-01T01:14:44;99790.03;;;24.55;65.83
58761;BME280;44529;47.464;19.014;2022-07-01T01:17:47;99779.81;;;24.52;65.83
58761;BME280;44529;47.464;19.014;2022-07-01T01:20:52;99786.69;;;24.40;66.36
58761;BME280;44529;47.464;19.014;2022-07-01T01:23:54;99793.47;;;24.32;66.68
58761;BME280;44529;47.464;19.014;2022-07-01T01:26:56;99792.69;;;24.35;66.42
58761;BME280;44529;47.464;19.014;2022-07-01T01:30:06;99791.91;;;24.35;66.33
58761;BME280;44529;47.464;19.014;2022-07-01T01:33:09;99795.81;;;24.37;66.08
58761;BME280;44529;47.464;19.014;2022-07-01T01:36:13;99788.66;;;24.40;66.31
58761;BME280;44529;47.464;19.014;2022-07-01T01:39:16;99790.22;;;24.41;66.54
58761;BME280;44529;47.464;19.014;2022-07-01T01:42:18;99799.31;;;24.41;66.53
58761;BME280;44529;47.464;19.014;2022-07-01T01:45:20;99807.62;;;24.41;66.48
58761;BME280;44529;47.464;19.014;2022-07-01T01:48:24;99797.78;;;24.37;66.41
58761;BME280;44529;47.464;19.014;2022-07-01T01:51:26;99801.91;;;24.21;66.96
58761;BME280;44529;47.464;19.014;2022-07-01T01:54:29;99796.91;;;24.13;67.14
58761;BME280;44529;47.464;19.014;2022-07-01T01:57:31;99797.78;;;24.06;67.37
58761;BME280;44529;47.464;19.014;2022-07-01T02:00:34;99792.75;;;23.97;67.41
58761;BME280;44529;47.464;19.014;2022-07-01T02:03:37;99791.25;;;23.89;67.80
58761;BME280;44529;47.464;19.014;2022-07-01T02:06:41;99787.34;;;23.87;68.09
58761;BME280;44529;47.464;19.014;2022-07-01T02:09:50;99779.56;;;23.78;68.29
58761;BME280;44529;47.464;19.014;2022-07-01T02:12:52;99777.72;;;23.68;68.77
58761;BME280;44529;47.464;19.014;2022-07-01T02:15:55;99770.69;;;23.60;68.97
58761;BME280;44529;47.464;19.014;2022-07-01T02:18:57;99776.22;;;23.56;69.21
58761;BME280;44529;47.464;19.014;2022-07-01T02:22:00;99787.25;;;23.56;69.26
58761;BME280;44529;47.464;19.014;2022-07-01T02:25:02;99781.13;;;23.41;70.06
58761;BME280;44529;47.464;19.014;2022-07-01T02:28:04;99787.09;;;23.36;70.48
58761;BME280;44529;47.464;19.014;2022-07-01T02:31:06;99787.50;;;23.31;70.67
58761;BME280;44529;47.464;19.014;2022-07-01T02:34:09;99791.53;;;23.27;70.96
58761;BME280;44529;47.464;19.014;2022-07-01T02:37:11;99791.94;;;23.25;71.17
58761;BME280;44529;47.464;19.014;2022-07-01T02:40:14;99791.19;;;23.21;71.38
58761;BME280;44529;47.464;19.014;2022-07-01T02:43:16;99795.53;;;23.18;71.82
58761;BME280;44529;47.464;19.014;2022-07-01T02:46:18;99804.97;;;23.21;71.52
58761;BME280;44529;47.464;19.014;2022-07-01T02:49:21;99800.25;;;23.18;71.30
58761;BME280;44529;47.464;19.014;2022-07-01T02:52:23;99811.34;;;23.14;71.50
58761;BME280;44529;47.464;19.014;2022-07-01T02:55:26;99803.84;;;23.15;71.50
58761;BME280;44529;47.464;19.014;2022-07-01T02:58:31;99812.47;;;23.20;71.41
58761;BME280;44529;47.464;19.014;2022-07-01T03:01:33;99811.69;;;23.16;71.38
58761;BME280;44529;47.464;19.014;2022-07-01T03:04:35;99810.56;;;23.14;71.43
58761;BME280;44529;47.464;19.014;2022-07-01T03:07:38;99810.56;;;23.14;71.17
58761;BME280;44529;47.464;19.014;2022-07-01T03:10:41;99818.44;;;23.12;71.31
58761;BME280;44529;47.464;19.014;2022-07-01T03:13:43;99822.38;;;23.11;71.45
58761;BME280;44529;47.464;19.014;2022-07-01T03:16:46;99825.59;;;23.06;71.57
58761;BME280;44529;47.464;19.014;2022-07-01T03:19:49;99814.22;;;22.96;71.91
58761;BME280;44529;47.464;19.014;2022-07-01T03:22:53;99812.66;;;22.95;72.01
58761;BME280;44529;47.464;19.014;2022-07-01T03:25:55;99826.81;;;22.97;71.96
58761;BME280;44529;47.464;19.014;2022-07-01T03:28:58;99837.50;;;22.95;72.28
58761;BME280;44529;47.464;19.014;2022-07-01T03:32:00;99848.53;;;22.92;72.77
58761;BME280;44529;47.464;19.014;2022-07-01T03:35:03;99849.78;;;22.80;73.10
58761;BME280;44529;47.464;19.014;2022-07-01T03:38:25;99856.03;;;22.84;73.15
58761;BME280;44529;47.464;19.014;2022-07-01T03:41:27;99861.97;;;22.79;73.40
58761;BME280;44529;47.464;19.014;2022-07-01T03:44:30;99861.19;;;22.79;73.49
58761;BME280;44529;47.464;19.014;2022-07-01T03:47:33;99867.88;;;22.81;73.68
58761;BME280;44529;47.464;19.014;2022-07-01T03:50:35;99876.09;;;22.92;73.20
58761;BME280;44529;47.464;19.014;2022-07-01T03:53:37;99878.84;;;22.95;73.40
58761;BME280;44529;47.464;19.014;2022-07-01T03:57:00;99883.53;;;22.98;73.24
58761;BME280;44529;47.464;19.014;2022-07-01T04:00:04;99887.47;;;23.01;72.79
58761;BME280;44529;47.464;19.014;2022-07-01T04:03:07;99897.31;;;23.02;72.89
58761;BME280;44529;47.464;19.014;2022-07-01T04:06:10;99888.63;;;23.07;72.40
58761;BME280;44529;47.464;19.014;2022-07-01T04:09:14;99886.25;;;23.09;72.53
58761;BME280;44529;47.464;19.014;2022-07-01T04:12:17;99892.91;;;23.12;72.42
58761;BME280;44529;47.464;19.014;2022-07-01T04:15:19;99890.16;;;23.12;72.34
58761;BME280;44529;47.464;19.014;2022-07-01T04:18:21;99900.00;;;23.13;72.57
58761;BME280;44529;47.464;19.014;2022-07-01T04:21:24;99902.72;;;23.16;72.66
58761;BME280;44529;47.464;19.014;2022-07-01T04:24:45;99885.38;;;23.19;72.84
58761;BME280;44529;47.464;19.014;2022-07-01T04:27:47;99883.00;;;23.18;73.20
58761;BME280;44529;47.464;19.014;2022-07-01T04:30:49;99881.38;;;23.24;73.49
58761;BME280;44529;47.464;19.014;2022-07-01T04:33:52;99885.75;;;23.25;73.65
58761;BME280;44529;47.464;19.014;2022-07-01T04:36:54;99881.78;;;23.26;73.91
58761;BME280;44529;47.464;19.014;2022-07-01T04:39:57;99880.53;;;23.34;73.41
58761;BME280;44529;47.464;19.014;2022-07-01T04:43:00;99871.81;;;23.39;73.53
58761;BME280;44529;47.464;19.014;2022-07-01T04:46:02;99871.41;;;23.41;74.10
58761;BME280;44529;47.464;19.014;2022-07-01T04:49:04;99874.88;;;23.48;73.86
58761;BME280;44529;47.464;19.014;2022-07-01T04:52:07;99866.97;;;23.50;73.58
58761;BME280;44529;47.464;19.014;2022-07-01T04:55:09;99868.94;;;23.54;74.13
58761;BME280;44529;47.464;19.014;2022-07-01T04:58:13;99857.44;;;23.59;74.39
58761;BME280;44529;47.464;19.014;2022-07-01T05:01:15;99869.66;;;23.65;74.56
58761;BME280;44529;47.464;19.014;2022-07-01T05:04:18;99873.91;;;23.69;74.63
58761;BME280;44529;47.464;19.014;2022-07-01T05:07:20;99877.41;;;23.77;74.67
58761;BME280;44529;47.464;19.014;2022-07-01T05:10:32;99873.00;;;23.83;74.56
58761;BME280;44529;47.464;19.014;2022-07-01T05:13:37;99882.38;;;23.93;74.42
58761;BME280;44529;47.464;19.014;2022-07-01T05:16:40;99882.28;;;24.00;74.34
58761;BME280;44529;47.464;19.014;2022-07-01T05:19:42;99891.69;;;24.06;74.34
58761;BME280;44529;47.464;19.014;2022-07-01T05:23:05;99896.00;;;24.11;74.38
58761;BME280;44529;47.464;19.014;2022-07-01T05:26:07;99896.34;;;24.13;74.17
58761;BME280;44529;47.464;19.014;2022-07-01T05:29:10;99902.56;;;24.20;73.97
58761;BME280;44529;47.464;19.014;2022-07-01T05:32:12;99910.78;;;24.27;75.37
58761;BME280;44529;47.464;19.014;2022-07-01T05:35:14;99909.53;;;24.32;77.25
58761;BME280;44529;47.464;19.014;2022-07-01T05:38:16;99911.91;;;24.37;75.69
58761;BME280;44529;47.464;19.014;2022-07-01T05:41:19;99908.69;;;24.42;78.92
58761;BME280;44529;47.464;19.014;2022-07-01T05:44:21;99906.62;;;24.46;78.05
58761;BME280;44529;47.464;19.014;2022-07-01T05:47:25;99916.44;;;24.54;78.91
58761;BME280;44529;47.464;19.014;2022-07-01T05:50:28;99921.09;;;24.61;75.46
58761;BME280;44529;47.464;19.014;2022-07-01T05:53:30;99921.34;;;24.70;75.06
58761;BME280;44529;47.464;19.014;2022-07-01T05:56:32;99926.31;;;24.82;76.07
58761;BME280;44529;47.464;19.014;2022-07-01T05:59:35;99917.50;;;24.91;74.43
58761;BME280;44529;47.464;19.014;2022-07-01T06:02:38;99925.34;;;24.96;75.27
58761;BME280;44529;47.464;19.014;2022-07-01T06:05:41;99931.19;;;25.02;74.25
58761;BME280;44529;47.464;19.014;2022-07-01T06:08:44;99933.88;;;25.09;73.81
58761;BME280;44529;47.464;19.014;2022-07-01T06:11:46;99938.16;;;25.14;72.92
58761;BME280;44529;47.464;19.014;2022-07-01T06:14:49;99941.94;;;25.23;72.38
58761;BME280;44529;47.464;19.014;2022-07-01T06:17:51;99943.78;;;25.33;72.07
58761;BME280;44529;47.464;19.014;2022-07-01T06:20:54;99942.53;;;25.38;72.26
58761;BME280;44529;47.464;19.014;2022-07-01T06:23:57;99943.56;;;25.48;71.12
58761;BME280;44529;47.464;19.014;2022-07-01T06:26:59;99945.72;;;25.60;69.89
58761;BME280;44529;47.464;19.014;2022-07-01T06:30:02;99947.13;;;25.72;69.33
58761;BME280;44529;47.464;19.014;2022-07-01T06:33:04;99946.25;;;25.78;70.28
58761;BME280;44529;47.464;19.014;2022-07-01T06:36:07;99943.78;;;25.84;70.81
58761;BME280;44529;47.464;19.014;2022-07-01T06:39:09;99946.91;;;25.86;70.88
58761;BME280;44529;47.464;19.014;2022-07-01T06:42:14;99946.41;;;25.91;69.10
58761;BME280;44529;47.464;19.014;2022-07-01T06:45:18;99949.78;;;26.02;68.60
58761;BME280;44529;47.464;19.014;2022-07-01T06:48:20;99948.09;;;26.08;68.78
58761;BME280;44529;47.464;19.014;2022-07-01T06:51:22;99939.63;;;26.15;68.10
58761;BME280;44529;47.464;19.014;2022-07-01T06:54:25;99943.81;;;26.24;67.83
58761;BME280;44529;47.464;19.014;2022-07-01T06:57:27;99940.00;;;26.37;66.72
58761;BME280;44529;47.464;19.014;2022-07-01T07:00:30;99939.72;;;26.52;67.47
58761;BME280;44529;47.464;19.014;2022-07-01T07:03:32;99944.72;;;26.60;67.29
58761;BME280;44529;47.464;19.014;2022-07-01T07:06:35;99932.53;;;26.74;66.29
58761;BME280;44529;47.464;19.014;2022-07-01T07:09:37;99940.87;;;26.90;65.46
58761;BME280;44529;47.464;19.014;2022-07-01T07:12:39;99930.47;;;27.14;63.92
58761;BME280;44529;47.464;19.014;2022-07-01T07:15:42;99938.66;;;27.38;65.05
58761;BME280;44529;47.464;19.014;2022-07-01T07:18:44;99938.44;;;27.61;63.66
58761;BME280;44529;47.464;19.014;2022-07-01T07:21:46;99932.19;;;27.90;63.57
58761;BME280;44529;47.464;19.014;2022-07-01T07:24:49;99927.63;;;28.12;62.27
58761;BME280;44529;47.464;19.014;2022-07-01T07:27:51;99934.31;;;28.44;62.12
58761;BME280;44529;47.464;19.014;2022-07-01T07:30:54;99929.47;;;28.73;60.40
58761;BME280;44529;47.464;19.014;2022-07-01T07:33:56;99925.16;;;28.98;59.79
58761;BME280;44529;47.464;19.014;2022-07-01T07:36:58;99930.94;;;29.16;58.37
58761;BME280;44529;47.464;19.014;2022-07-01T07:40:02;99924.72;;;29.37;56.59
58761;BME280;44529;47.464;19.014;2022-07-01T07:43:05;99924.22;;;29.64;53.01
58761;BME280;44529;47.464;19.014;2022-07-01T07:46:09;99925.25;;;29.92;53.67
58761;BME280;44529;47.464;19.014;2022-07-01T07:49:11;99926.72;;;30.19;52.35
58761;BME280;44529;47.464;19.014;2022-07-01T07:52:14;99932.44;;;30.37;51.40
58761;BME280;44529;47.464;19.014;2022-07-01T07:55:16;99926.13;;;30.68;49.78
58761;BME280;44529;47.464;19.014;2022-07-01T07:58:18;99922.81;;;30.91;48.86
58761;BME280;44529;47.464;19.014;2022-07-01T08:01:21;99940.00;;;31.12;49.30
58761;BME280;44529;47.464;19.014;2022-07-01T08:04:23;99937.31;;;31.39;45.78
58761;BME280;44529;47.464;19.014;2022-07-01T08:07:25;99934.22;;;31.55;46.19
58761;BME280;44529;47.464;19.014;2022-07-01T08:10:28;99941.41;;;31.75;44.17
58761;BME280;44529;47.464;19.014;2022-07-01T08:13:30;99939.75;;;31.96;43.19
58761;BME280;44529;47.464;19.014;2022-07-01T08:16:33;99937.69;;;32.24;44.60
58761;BME280;44529;47.464;19.014;2022-07-01T08:19:35;99936.28;;;32.56;43.53
58761;BME280;44529;47.464;19.014;2022-07-01T08:22:38;99950.09;;;32.69;42.90
58761;BME280;44529;47.464;19.014;2022-07-01T08:25:49;99949.72;;;32.94;42.37
58761;BME280;44529;47.464;19.014;2022-07-01T08:28:51;99946.75;;;33.31;42.49
58761;BME280;44529;47.464;19.014;2022-07-01T08:31:54;99950.63;;;33.66;41.38
58761;BME280;44529;47.464;19.014;2022-07-01T08:34:56;99950.47;;;33.85;40.60
58761;BME280;44529;47.464;19.014;2022-07-01T08:37:59;99948.81;;;34.02;41.03
58761;BME280;44529;47.464;19.014;2022-07-01T08:41:03;99936.19;;;34.21;40.23
58761;BME280;44529;47.464;19.014;2022-07-01T08:44:06;99945.38;;;34.37;38.94
58761;BME280;44529;47.464;19.014;2022-07-01T08:47:12;99939.50;;;34.64;37.38
58761;BME280;44529;47.464;19.014;2022-07-01T08:50:18;99951.34;;;34.54;36.91
58761;BME280;44529;47.464;19.014;2022-07-01T08:53:24;99958.09;;;34.77;36.98
58761;BME280;44529;47.464;19.014;2022-07-01T08:56:27;99948.41;;;35.07;36.14
58761;BME280;44529;47.464;19.014;2022-07-01T09:00:06;99949.84;;;35.17;36.53
58761;BME280;44529;47.464;19.014;2022-07-01T09:03:09;99947.94;;;35.64;35.04
58761;BME280;44529;47.464;19.014;2022-07-01T09:06:20;99948.69;;;35.85;34.52
58761;BME280;44529;47.464;19.014;2022-07-01T09:09:22;99936.84;;;36.22;33.17
58761;BME280;44529;47.464;19.014;2022-07-01T09:12:38;99939.44;;;36.46;32.63
58761;BME280;44529;47.464;19.014;2022-07-01T09:15:41;99935.78;;;36.19;33.47
58761;BME280;44529;47.464;19.014;2022-07-01T09:19:04;99933.81;;;36.25;33.16
58761;BME280;44529;47.464;19.014;2022-07-01T09:22:06;99920.09;;;36.33;31.42
58761;BME280;44529;47.464;19.014;2022-07-01T09:25:12;99936.75;;;36.63;31.99
58761;BME280;44529;47.464;19.014;2022-07-01T09:28:19;99932.28;;;36.82;31.29
58761;BME280;44529;47.464;19.014;2022-07-01T09:31:23;99934.13;;;36.85;31.51
58761;BME280;44529;47.464;19.014;2022-07-01T09:34:35;99921.38;;;36.95;30.88
58761;BME280;44529;47.464;19.014;2022-07-01T09:37:42;99919.09;;;36.94;31.06
58761;BME280;44529;47.464;19.014;2022-07-01T09:43:51;99919.97;;;37.11;32.00
58761;BME280;44529;47.464;19.014;2022-07-01T09:46:55;99916.22;;;36.88;31.57
58761;BME280;44529;47.464;19.014;2022-07-01T09:49:58;99911.22;;;36.72;30.35
58761;BME280;44529;47.464;19.014;2022-07-01T09:53:01;99922.66;;;36.94;31.71
58761;BME280;44529;47.464;19.014;2022-07-01T09:56:03;99917.75;;;36.89;30.38
58761;BME280;44529;47.464;19.014;2022-07-01T09:59:06;99916.41;;;36.79;31.41
58761;BME280;44529;47.464;19.014;2022-07-01T10:02:09;99916.09;;;37.08;31.14
58761;BME280;44529;47.464;19.014;2022-07-01T10:05:15;99904.88;;;37.20;30.88
58761;BME280;44529;47.464;19.014;2022-07-01T10:14:53;99897.44;;;37.17;30.61
58761;BME280;44529;47.464;19.014;2022-07-01T10:17:56;99902.66;;;37.29;30.50
58761;BME280;44529;47.464;19.014;2022-07-01T10:20:58;99896.88;;;37.55;29.99
58761;BME280;44529;47.464;19.014;2022-07-01T10:24:16;99893.91;;;37.27;30.61
58761;BME280;44529;47.464;19.014;2022-07-01T10:27:23;99897.62;;;37.07;29.27
58761;BME280;44529;47.464;19.014;2022-07-01T10:30:30;99889.50;;;36.83;30.68
58761;BME280;44529;47.464;19.014;2022-07-01T10:33:43;99879.81;;;36.53;30.47
58761;BME280;44529;47.464;19.014;2022-07-01T10:37:00;99888.03;;;36.88;30.60
58761;BME280;44529;47.464;19.014;2022-07-01T10:40:03;99888.69;;;37.14;29.87
58761;BME280;44529;47.464;19.014;2022-07-01T10:43:08;99880.06;;;37.24;30.09
58761;BME280;44529;47.464;19.014;2022-07-01T10:53:03;99889.22;;;37.13;29.87
58761;BME280;44529;47.464;19.014;2022-07-01T10:56:06;99885.94;;;37.26;28.69
58761;BME280;44529;47.464;19.014;2022-07-01T10:59:17;99872.97;;;37.45;28.31
58761;BME280;44529;47.464;19.014;2022-07-01T11:02:23;99869.28;;;36.85;29.95
58761;BME280;44529;47.464;19.014;2022-07-01T11:05:30;99871.00;;;36.71;30.61
58761;BME280;44529;47.464;19.014;2022-07-01T11:08:33;99867.72;;;36.78;29.32
58761;BME280;44529;47.464;19.014;2022-07-01T11:11:35;99862.16;;;36.90;28.75
58761;BME280;44529;47.464;19.014;2022-07-01T11:14:39;99865.75;;;36.90;28.75
58761;BME280;44529;47.464;19.014;2022-07-01T11:17:47;99859.62;;;36.60;29.11
58761;BME280;44529;47.464;19.014;2022-07-01T11:20:50;99863.84;;;36.44;29.02
58761;BME280;44529;47.464;19.014;2022-07-01T11:23:53;99866.25;;;36.57;28.89
58761;BME280;44529;47.464;19.014;2022-07-01T11:27:06;99864.03;;;36.35;29.54
58761;BME280;44529;47.464;19.014;2022-07-01T11:30:10;99866.75;;;35.98;30.05
58761;BME280;44529;47.464;19.014;2022-07-01T11:33:24;99879.41;;;35.67;30.53
58761;BME280;44529;47.464;19.014;2022-07-01T11:36:26;99860.41;;;35.21;31.52
58761;BME280;44529;47.464;19.014;2022-07-01T11:39:47;99850.59;;;35.32;31.08
58761;BME280;44529;47.464;19.014;2022-07-01T11:42:49;99852.59;;;35.46;30.86
58761;BME280;44529;47.464;19.014;2022-07-01T11:45:53;99841.16;;;35.35;30.88
58761;BME280;44529;47.464;19.014;2022-07-01T11:48:56;99847.91;;;35.22;31.48
58761;BME280;44529;47.464;19.014;2022-07-01T11:52:00;99835.19;;;35.07;31.01
58761;BME280;44529;47.464;19.014;2022-07-01T11:55:03;99832.87;;;35.25;31.68
58761;BME280;44529;47.464;19.014;2022-07-01T11:58:40;99823.81;;;35.57;30.66
58761;BME280;44529;47.464;19.014;2022-07-01T12:01:51;99829.91;;;35.75;29.86
58761;BME280;44529;47.464;19.014;2022-07-01T12:04:59;99820.72;;;35.80;29.45
58761;BME280;44529;47.464;19.014;2022-07-01T12:08:02;99822.53;;;36.04;29.18
58761;BME280;44529;47.464;19.014;2022-07-01T12:11:05;99818.19;;;36.03;29.13
58761;BME280;44529;47.464;19.014;2022-07-01T12:14:07;99806.41;;;36.04;28.36
58761;BME280;44529;47.464;19.014;2022-07-01T12:17:15;99802.81;;;36.04;28.41
58761;BME280;44529;47.464;19.014;2022-07-01T12:20:31;99802.94;;;36.15;27.81
58761;BME280;44529;47.464;19.014;2022-07-01T12:23:34;99788.41;;;36.22;27.49
58761;BME280;44529;47.464;19.014;2022-07-01T12:30:00;99794.38;;;36.35;28.38
58761;BME280;44529;47.464;19.014;2022-07-01T12:33:10;99795.66;;;36.34;27.52
58761;BME280;44529;47.464;19.014;2022-07-01T12:36:12;99772.78;;;36.21;27.69
58761;BME280;44529;47.464;19.014;2022-07-01T12:39:16;99781.38;;;36.12;28.04
58761;BME280;44529;47.464;19.014;2022-07-01T12:42:25;99773.53;;;36.22;28.27
58761;BME280;44529;47.464;19.014;2022-07-01T12:45:27;99777.41;;;36.24;28.81
58761;BME280;44529;47.464;19.014;2022-07-01T12:48:47;99772.09;;;36.00;28.35
58761;BME280;44529;47.464;19.014;2022-07-01T12:51:51;99767.38;;;35.66;28.71
58761;BME280;44529;47.464;19.014;2022-07-01T12:54:56;99758.84;;;35.54;27.78
58761;BME280;44529;47.464;19.014;2022-07-01T12:57:59;99757.91;;;35.63;27.90
58761;BME280;44529;47.464;19.014;2022-07-01T13:01:01;99752.81;;;35.93;28.05
58761;BME280;44529;47.464;19.014;2022-07-01T13:04:07;99743.97;;;36.06;28.12
58761;BME280;44529;47.464;19.014;2022-07-01T13:07:09;99759.41;;;36.16;26.89
58761;BME280;44529;47.464;19.014;2022-07-01T13:10:13;99746.12;;;36.17;26.65
58761;BME280;44529;47.464;19.014;2022-07-01T13:13:16;99748.87;;;36.11;26.80
58761;BME280;44529;47.464;19.014;2022-07-01T13:16:21;99743.59;;;36.24;25.88
58761;BME280;44529;47.464;19.014;2022-07-01T13:19:23;99742.87;;;36.29;25.71
58761;BME280;44529;47.464;19.014;2022-07-01T13:22:25;99739.84;;;36.33;26.13
58761;BME280;44529;47.464;19.014;2022-07-01T13:25:28;99736.63;;;36.46;26.60
58761;BME280;44529;47.464;19.014;2022-07-01T13:28:30;99726.94;;;36.52;26.47
58761;BME280;44529;47.464;19.014;2022-07-01T13:31:32;99731.50;;;36.50;26.54
58761;BME280;44529;47.464;19.014;2022-07-01T13:34:35;99718.69;;;36.49;26.68
58761;BME280;44529;47.464;19.014;2022-07-01T13:37:39;99717.41;;;36.50;26.84
58761;BME280;44529;47.464;19.014;2022-07-01T13:40:41;99718.69;;;36.49;25.83
58761;BME280;44529;47.464;19.014;2022-07-01T13:43:47;99723.97;;;36.35;26.93
58761;BME280;44529;47.464;19.014;2022-07-01T13:46:50;99724.34;;;36.17;26.96
58761;BME280;44529;47.464;19.014;2022-07-01T13:49:52;99721.03;;;35.87;26.89
58761;BME280;44529;47.464;19.014;2022-07-01T13:52:54;99716.56;;;36.01;26.88
58761;BME280;44529;47.464;19.014;2022-07-01T13:55:57;99712.19;;;36.00;26.55
58761;BME280;44529;47.464;19.014;2022-07-01T13:58:59;99706.13;;;36.07;26.94
58761;BME280;44529;47.464;19.014;2022-07-01T14:02:01;99724.91;;;36.21;27.26
58761;BME280;44529;47.464;19.014;2022-07-01T14:05:04;99709.13;;;36.35;26.69
58761;BME280;44529;47.464;19.014;2022-07-01T14:08:06;99699.69;;;36.01;26.05
58761;BME280;44529;47.464;19.014;2022-07-01T14:11:09;99713.59;;;36.16;27.34
58761;BME280;44529;47.464;19.014;2022-07-01T14:14:11;99709.78;;;36.19;26.30
58761;BME280;44529;47.464;19.014;2022-07-01T14:17:13;99704.72;;;36.28;26.12
58761;BME280;44529;47.464;19.014;2022-07-01T14:20:16;99712.16;;;36.31;25.62
58761;BME280;44529;47.464;19.014;2022-07-01T14:23:18;99712.44;;;36.33;26.62
58761;BME280;44529;47.464;19.014;2022-07-01T14:26:20;99708.94;;;36.44;25.76
58761;BME280;44529;47.464;19.014;2022-07-01T14:29:23;99698.06;;;36.31;25.16
58761;BME280;44529;47.464;19.014;2022-07-01T14:32:25;99700.97;;;36.05;25.79
58761;BME280;44529;47.464;19.014;2022-07-01T14:35:31;99696.28;;;35.91;26.11
58761;BME280;44529;47.464;19.014;2022-07-01T14:38:33;99690.56;;;35.86;26.32
58761;BME280;44529;47.464;19.014;2022-07-01T14:41:36;99694.22;;;35.92;26.77
58761;BME280;44529;47.464;19.014;2022-07-01T14:44:38;99685.31;;;35.99;27.19
58761;BME280;44529;47.464;19.014;2022-07-01T14:47:42;99679.47;;;36.02;26.74
58761;BME280;44529;47.464;19.014;2022-07-01T14:50:44;99690.47;;;36.00;26.44
58761;BME280;44529;47.464;19.014;2022-07-01T14:53:46;99678.66;;;35.96;26.46
58761;BME280;44529;47.464;19.014;2022-07-01T14:56:55;99683.06;;;36.03;26.71
58761;BME280;44529;47.464;19.014;2022-07-01T14:59:58;99680.50;;;36.05;26.58
58761;BME280;44529;47.464;19.014;2022-07-01T15:03:00;99691.56;;;36.08;26.48
58761;BME280;44529;47.464;19.014;2022-07-01T15:06:03;99691.25;;;36.01;27.19
58761;BME280;44529;47.464;19.014;2022-07-01T15:09:05;99694.22;;;35.92;27.24
58761;BME280;44529;47.464;19.014;2022-07-01T15:12:08;99685.78;;;35.92;26.57
58761;BME280;44529;47.464;19.014;2022-07-01T15:15:10;99689.75;;;35.79;27.47
58761;BME280;44529;47.464;19.014;2022-07-01T15:18:12;99682.94;;;35.60;28.10
58761;BME280;44529;47.464;19.014;2022-07-01T15:21:14;99680.06;;;35.49;28.12
58761;BME280;44529;47.464;19.014;2022-07-01T15:24:17;99679.81;;;35.52;28.43
58761;BME280;44529;47.464;19.014;2022-07-01T15:27:19;99680.84;;;35.55;28.72
58761;BME280;44529;47.464;19.014;2022-07-01T15:30:21;99676.28;;;35.58;28.06
58761;BME280;44529;47.464;19.014;2022-07-01T15:33:24;99666.25;;;35.51;28.18
58761;BME280;44529;47.464;19.014;2022-07-01T15:36:26;99669.88;;;35.57;28.19
58761;BME280;44529;47.464;19.014;2022-07-01T15:39:28;99668.06;;;35.54;27.81
58761;BME280;44529;47.464;19.014;2022-07-01T15:42:31;99661.72;;;35.59;28.08
58761;BME280;44529;47.464;19.014;2022-07-01T15:45:33;99667.34;;;35.59;28.21
58761;BME280;44529;47.464;19.014;2022-07-01T15:48:37;99667.56;;;35.56;28.11
58761;BME280;44529;47.464;19.014;2022-07-01T15:51:39;99666.00;;;35.54;28.52
58761;BME280;44529;47.464;19.014;2022-07-01T15:54:43;99667.78;;;35.52;28.95
58761;BME280;44529;47.464;19.014;2022-07-01T15:57:46;99666.06;;;35.60;28.73
58761;BME280;44529;47.464;19.014;2022-07-01T16:00:56;99666.56;;;35.59;29.47
58761;BME280;44529;47.464;19.014;2022-07-01T16:03:58;99666.00;;;35.54;29.28
58761;BME280;44529;47.464;19.014;2022-07-01T16:07:02;99666.25;;;35.51;29.13
58761;BME280;44529;47.464;19.014;2022-07-01T16:10:10;99669.62;;;35.35;29.36
58761;BME280;44529;47.464;19.014;2022-07-01T16:13:16;99666.06;;;35.34;29.34
58761;BME280;44529;47.464;19.014;2022-07-01T16:16:24;99668.66;;;35.38;29.33
58761;BME280;44529;47.464;19.014;2022-07-01T16:19:27;99657.41;;;35.38;29.05
58761;BME280;44529;47.464;19.014;2022-07-01T16:22:36;99668.66;;;35.38;28.90